createdAt,value
2019-05-17T00:00:57.334Z,99348.30
2019-05-17T00:03:27.097Z,99349.88
2019-05-17T00:05:57.360Z,99337.02
2019-05-17T00:08:34.292Z,99337.42
2019-05-17T00:10:57.553Z,99338.36
2019-05-17T00:13:26.964Z,99333.99
2019-05-17T00:15:56.680Z,99333.33
2019-05-17T00:18:27.110Z,99336.38
2019-05-17T00:20:57.082Z,99323.63
2019-05-17T00:23:26.917Z,99322.50
2019-05-17T00:25:56.577Z,99322.06
2019-05-17T00:28:26.964Z,99326.08
2019-05-17T00:30:57.144Z,99323.30
2019-05-17T00:33:27.210Z,99319.56
2019-05-17T00:35:56.672Z,99328.20
2019-05-17T00:38:27.443Z,99322.94
2019-05-17T00:40:58.144Z,99318.06
2019-05-17T00:43:28.590Z,99312.85
2019-05-17T00:45:57.962Z,99312.38
2019-05-17T00:48:27.134Z,99315.66
2019-05-17T00:51:02.207Z,99323.95
2019-05-17T00:53:28.632Z,99316.58
2019-05-17T00:55:57.807Z,99313.80
2019-05-17T00:58:27.054Z,99310.91
2019-05-17T01:00:57.039Z,99312.80
2019-05-17T01:03:26.963Z,99310.64
2019-05-17T01:05:56.747Z,99321.14
2019-05-17T01:08:26.670Z,99322.92
2019-05-17T01:10:56.606Z,99320.08
2019-05-17T01:13:26.699Z,99323.41
2019-05-17T01:15:56.693Z,99328.24
2019-05-17T01:18:26.981Z,99321.89
2019-05-17T01:20:56.866Z,99327.08
2019-05-17T01:23:29.203Z,99312.89
2019-05-17T01:25:58.911Z,99321.23
2019-05-17T01:28:28.140Z,99318.41
2019-05-17T01:31:03.312Z,99319.47
2019-05-17T01:33:32.979Z,99314.94
2019-05-17T01:36:02.298Z,99312.69
2019-05-17T01:38:31.463Z,99306.57
2019-05-17T01:41:00.758Z,99308.98
2019-05-17T01:43:29.991Z,99302.92
2019-05-17T01:45:59.286Z,99304.05
2019-05-17T01:48:28.534Z,99310.56
2019-05-17T01:50:58.017Z,99302.67
2019-05-17T01:53:27.293Z,99308.13
2019-05-17T01:55:56.916Z,99295.05
2019-05-17T01:58:26.952Z,99287.86
2019-05-17T02:00:57.394Z,99294.50
2019-05-17T02:03:26.945Z,99288.14
2019-05-17T02:05:56.707Z,99288.98
2019-05-17T02:08:26.461Z,99290.44
2019-05-17T02:10:57.375Z,99291.11
2019-05-17T02:13:26.895Z,99281.17
2019-05-17T02:15:56.556Z,99293.13
2019-05-17T02:18:26.595Z,99294.41
2019-05-17T02:20:57.101Z,99287.89
2019-05-17T02:23:27.004Z,99284.78
2019-05-17T02:25:57.144Z,99288.14
2019-05-17T02:28:26.501Z,99294.11
2019-05-17T02:30:55.770Z,99304.39
2019-05-17T02:33:25.091Z,99293.38
2019-05-17T02:35:54.294Z,99300.03
2019-05-17T02:38:23.597Z,99302.44
2019-05-17T02:40:53.529Z,99307.47
2019-05-17T02:43:23.730Z,99305.73
2019-05-17T02:45:53.103Z,99300.05
2019-05-17T02:48:23.273Z,99304.91
2019-05-17T02:50:53.396Z,99302.56
2019-05-17T02:53:23.200Z,99297.86
2019-05-17T02:55:53.875Z,99293.20
2019-05-17T02:58:23.611Z,99293.55
2019-05-17T03:00:53.489Z,99294.30
2019-05-17T03:03:23.744Z,99295.68
2019-05-17T03:05:53.739Z,99277.44
2019-05-17T03:08:23.821Z,99280.44
2019-05-17T03:10:54.619Z,99276.45
2019-05-17T03:13:23.781Z,99282.84
2019-05-17T03:15:53.179Z,99280.49
2019-05-17T03:18:24.067Z,99275.48
2019-05-17T03:20:54.435Z,99281.03
2019-05-17T03:23:23.742Z,99284.63
2019-05-17T03:25:53.066Z,99281.01
2019-05-17T03:28:23.516Z,99276.23
2019-05-17T03:30:56.311Z,99281.81
2019-05-17T03:33:26.535Z,99270.70
2019-05-17T03:35:56.858Z,99273.97
2019-05-17T03:38:26.838Z,99278.02
2019-05-17T03:41:12.375Z,99274.95
2019-05-17T03:43:28.619Z,99281.23
2019-05-17T03:45:58.005Z,99281.31
2019-05-17T03:48:29.187Z,99282.25
2019-05-17T03:51:02.346Z,99287.03
2019-05-17T03:53:33.458Z,99292.42
2019-05-17T03:56:02.993Z,99290.04
2019-05-17T03:58:33.492Z,99292.80
2019-05-17T04:01:04.189Z,99292.95
2019-05-17T04:03:35.656Z,99280.48
2019-05-17T04:06:05.303Z,99287.44
2019-05-17T04:08:36.074Z,99288.41
2019-05-17T04:11:20.437Z,99279.70
2019-05-17T04:13:38.730Z,99280.70
2019-05-17T04:16:09.440Z,99282.20
2019-05-17T04:18:39.279Z,99291.33
2019-05-17T04:21:08.696Z,99292.70
2019-05-17T04:23:37.950Z,99291.25
2019-05-17T04:26:07.186Z,99294.63
2019-05-17T04:28:36.519Z,99304.62
2019-05-17T04:31:05.705Z,99307.80
2019-05-17T04:33:34.977Z,99307.73
2019-05-17T04:36:04.181Z,99305.95
2019-05-17T04:38:33.923Z,99310.62
2019-05-17T04:41:03.732Z,99310.18
2019-05-17T04:43:33.725Z,99313.83
2019-05-17T04:46:03.464Z,99316.90
2019-05-17T04:48:33.125Z,99315.67
2019-05-17T04:51:02.936Z,99313.52
2019-05-17T04:53:32.998Z,99319.41
2019-05-17T04:56:03.219Z,99318.06
2019-05-17T04:58:33.745Z,99316.95
2019-05-17T05:01:04.200Z,99322.09
2019-05-17T05:03:33.789Z,99313.13
2019-05-17T05:06:03.503Z,99321.03
2019-05-17T05:08:33.304Z,99319.44
2019-05-17T05:11:04.021Z,99318.78
2019-05-17T05:13:33.827Z,99322.09
2019-05-17T05:16:03.501Z,99323.10
2019-05-17T05:18:33.043Z,99315.48
2019-05-17T05:21:03.635Z,99309.21
2019-05-17T05:23:33.308Z,99312.27
2019-05-17T05:26:03.229Z,99314.29
2019-05-17T05:28:32.623Z,99316.71
2019-05-17T05:31:02.190Z,99315.44
2019-05-17T05:33:33.095Z,99317.09
2019-05-17T05:36:02.913Z,99323.56
2019-05-17T05:38:32.270Z,99318.78
2019-05-17T05:41:02.028Z,99324.00
2019-05-17T05:43:32.618Z,99329.30
2019-05-17T05:46:02.709Z,99327.63
2019-05-17T05:48:33.707Z,99327.48
2019-05-17T05:51:04.889Z,99323.45
2019-05-17T05:53:35.648Z,99318.67
2019-05-17T05:56:04.908Z,99323.09
2019-05-17T05:58:34.187Z,99330.69
2019-05-17T06:01:04.070Z,99324.69
2019-05-17T06:03:33.302Z,99320.62
2019-05-17T06:06:02.569Z,99324.88
2019-05-17T06:08:32.409Z,99328.52
2019-05-17T06:11:02.326Z,99333.48
2019-05-17T06:13:32.716Z,99324.16
2019-05-17T06:16:02.689Z,99331.06
2019-05-17T06:18:32.562Z,99331.77
2019-05-17T06:21:03.251Z,99333.29
2019-05-17T06:23:32.617Z,99333.66
2019-05-17T06:26:03.903Z,99340.92
2019-05-17T06:28:32.881Z,99331.92
2019-05-17T06:31:02.965Z,99337.25
2019-05-17T06:33:34.853Z,99346.36
2019-05-17T06:36:03.648Z,99341.88
2019-05-17T06:38:33.114Z,99346.64
2019-05-17T06:41:02.362Z,99353.41
2019-05-17T06:43:32.325Z,99348.69
2019-05-17T06:46:02.048Z,99352.55
2019-05-17T06:48:32.026Z,99349.20
2019-05-17T06:51:02.493Z,99350.75
2019-05-17T06:53:32.513Z,99350.72
2019-05-17T06:56:02.755Z,99358.09
2019-05-17T06:58:32.231Z,99364.59
2019-05-17T07:01:01.614Z,99364.15
2019-05-17T07:03:30.876Z,99356.78
2019-05-17T07:06:01.693Z,99353.36
2019-05-17T07:08:31.044Z,99351.75
2019-05-17T07:11:00.359Z,99341.13
2019-05-17T07:13:30.201Z,99349.55
2019-05-17T07:15:59.891Z,99344.48
2019-05-17T07:18:30.070Z,99345.20
2019-05-17T07:21:02.884Z,99340.62
2019-05-17T07:23:30.487Z,99346.08
2019-05-17T07:25:59.840Z,99355.10
2019-05-17T07:28:30.214Z,99356.38
2019-05-17T07:30:59.909Z,99356.89
2019-05-17T07:33:30.514Z,99359.97
2019-05-17T07:35:59.974Z,99362.39
2019-05-17T07:38:30.302Z,99368.28
2019-05-17T07:40:59.927Z,99361.89
2019-05-17T07:43:29.889Z,99363.63
2019-05-17T07:46:00.467Z,99370.45
2019-05-17T07:48:31.450Z,99369.88
2019-05-17T07:51:01.044Z,99368.28
2019-05-17T07:53:30.869Z,99376.81
2019-05-17T07:56:00.268Z,99378.95
2019-05-17T07:58:30.097Z,99379.52
2019-05-17T08:01:02.206Z,99377.47
2019-05-17T08:03:30.831Z,99386.69
2019-05-17T08:06:00.220Z,99378.41
2019-05-17T08:08:31.004Z,99377.44
2019-05-17T08:11:00.987Z,99389.06
2019-05-17T08:13:33.570Z,99382.33
2019-05-17T08:16:01.489Z,99379.29
2019-05-17T08:18:30.825Z,99378.25
2019-05-17T08:21:00.155Z,99382.69
2019-05-17T08:23:30.462Z,99386.22
2019-05-17T08:26:00.626Z,99380.34
2019-05-17T08:28:31.200Z,99384.16
2019-05-17T08:31:01.220Z,99374.14
2019-05-17T08:33:31.028Z,99373.30
2019-05-17T08:36:01.216Z,99372.17
2019-05-17T08:38:30.743Z,99378.78
2019-05-17T08:41:00.792Z,99369.33
2019-05-17T08:43:41.812Z,99368.43
2019-05-17T08:46:02.504Z,99356.38
2019-05-17T08:48:32.181Z,99353.08
2019-05-17T08:51:01.494Z,99355.30
2019-05-17T08:53:30.802Z,99359.37
2019-05-17T08:56:00.907Z,99353.97
2019-05-17T08:58:30.937Z,99350.78
2019-05-17T09:01:00.594Z,99342.80
2019-05-17T09:03:30.335Z,99342.17
2019-05-17T09:06:02.171Z,99349.37
2019-05-17T09:08:31.172Z,99349.12
2019-05-17T09:11:00.663Z,99337.23
2019-05-17T09:13:30.049Z,99339.27
2019-05-17T09:16:00.217Z,99342.24
2019-05-17T09:18:30.340Z,99343.12
2019-05-17T09:21:00.427Z,99337.09
2019-05-17T09:23:30.502Z,99338.10
2019-05-17T09:26:00.100Z,99343.66
2019-05-17T09:28:30.069Z,99337.94
2019-05-17T09:31:00.104Z,99333.56
2019-05-17T09:33:30.260Z,99330.17
2019-05-17T09:36:00.802Z,99330.73
2019-05-17T09:38:30.790Z,99327.16
2019-05-17T09:41:00.239Z,99333.60
2019-05-17T09:43:29.741Z,99333.34
2019-05-17T09:46:01.615Z,99324.55
2019-05-17T09:48:30.769Z,99339.94
2019-05-17T09:51:00.585Z,99341.69
2019-05-17T09:53:30.764Z,99337.50
2019-05-17T09:56:00.701Z,99334.03
2019-05-17T09:58:30.229Z,99337.12
2019-05-17T10:01:01.344Z,99342.75
2019-05-17T10:03:30.959Z,99342.72
2019-05-17T10:06:00.296Z,99347.95
2019-05-17T10:08:29.540Z,99346.83
2019-05-17T10:11:08.398Z,99350.48
2019-05-17T10:13:29.992Z,99349.75
2019-05-17T10:16:00.453Z,99351.64
2019-05-17T10:18:29.967Z,99354.78
2019-05-17T10:20:59.800Z,99351.39
2019-05-17T10:23:29.920Z,99350.75
2019-05-17T10:25:59.715Z,99345.36
2019-05-17T10:28:29.217Z,99343.78
2019-05-17T10:31:02.074Z,99343.72
2019-05-17T10:33:29.779Z,99345.91
2019-05-17T10:36:00.436Z,99346.73
2019-05-17T10:38:30.160Z,99341.36
2019-05-17T10:40:59.683Z,99340.16
2019-05-17T10:43:29.850Z,99343.00
2019-05-17T10:45:59.776Z,99342.02
2019-05-17T10:48:30.061Z,99342.95
2019-05-17T10:51:00.306Z,99344.92
2019-05-17T10:53:29.986Z,99344.69
2019-05-17T10:56:00.669Z,99352.05
2019-05-17T10:58:30.248Z,99354.58
2019-05-17T11:01:00.763Z,99362.16
2019-05-17T11:03:30.469Z,99350.80
2019-05-17T11:05:59.997Z,99358.70
2019-05-17T11:08:29.477Z,99354.81
2019-05-17T11:10:59.599Z,99360.26
2019-05-17T11:13:29.276Z,99357.51
2019-05-17T11:15:58.466Z,99352.39
2019-05-17T11:18:27.828Z,99363.25
2019-05-17T11:20:57.207Z,99359.24
2019-05-17T11:23:26.603Z,99358.14
2019-05-17T11:25:55.994Z,99362.02
2019-05-17T11:28:25.369Z,99361.75
2019-05-17T11:30:54.719Z,99367.34
2019-05-17T11:33:23.989Z,99361.44
2019-05-17T11:35:53.618Z,99363.81
2019-05-17T11:38:23.102Z,99366.03
2019-05-17T11:40:52.549Z,99364.25
2019-05-17T11:43:21.788Z,99371.74
2019-05-17T11:45:51.214Z,99368.23
2019-05-17T11:48:20.663Z,99368.63
2019-05-17T11:50:50.061Z,99361.72
2019-05-17T11:53:19.387Z,99364.57
2019-05-17T11:55:48.772Z,99369.20
2019-05-17T11:58:18.028Z,99379.41
2019-05-17T12:00:47.428Z,99374.48
2019-05-17T12:03:16.792Z,99372.81
2019-05-17T12:05:46.057Z,99368.59
2019-05-17T12:08:15.324Z,99362.91
2019-05-17T12:10:44.956Z,99368.42
2019-05-17T12:13:14.366Z,99371.00
2019-05-17T12:15:45.577Z,99364.62
2019-05-17T12:18:14.808Z,99359.98
2019-05-17T12:20:44.332Z,99370.36
2019-05-17T12:23:13.511Z,99375.51
2019-05-17T12:25:42.905Z,99378.78
2019-05-17T12:28:12.226Z,99368.13
2019-05-17T12:30:41.483Z,99375.31
2019-05-17T12:33:10.888Z,99374.23
2019-05-17T12:35:40.212Z,99381.73
2019-05-17T12:38:09.550Z,99376.81
2019-05-17T12:40:38.930Z,99373.17
2019-05-17T12:43:08.261Z,99387.39
2019-05-17T12:45:37.659Z,99375.66
2019-05-17T12:48:06.982Z,99377.75
2019-05-17T12:50:36.337Z,99377.25
2019-05-17T12:53:05.770Z,99377.05
2019-05-17T12:55:35.182Z,99377.26
2019-05-17T12:58:04.499Z,99384.86
2019-05-17T13:00:33.861Z,99384.05
2019-05-17T13:03:03.142Z,99375.77
2019-05-17T13:05:32.529Z,99376.84
2019-05-17T13:08:01.950Z,99378.08
2019-05-17T13:10:31.335Z,99381.34
2019-05-17T13:13:00.656Z,99388.12
2019-05-17T13:15:30.138Z,99371.97
2019-05-17T13:17:59.473Z,99377.08
2019-05-17T13:20:28.868Z,99388.36
2019-05-17T13:22:58.280Z,99384.54
2019-05-17T13:25:27.600Z,99375.28
2019-05-17T13:27:56.850Z,99383.48
2019-05-17T13:30:26.352Z,99375.72
2019-05-17T13:32:55.622Z,99386.55
2019-05-17T13:35:25.030Z,99382.66
2019-05-17T13:37:54.449Z,99386.64
2019-05-17T13:40:23.725Z,99382.00
2019-05-17T13:42:53.113Z,99377.59
2019-05-17T13:45:22.512Z,99382.34
2019-05-17T13:47:51.862Z,99378.26
2019-05-17T14:26:51.583Z,99371.91
2019-05-17T14:29:21.019Z,99391.33
2019-05-17T14:31:50.379Z,99398.77
2019-05-17T14:34:19.686Z,99387.80
2019-05-17T14:36:48.935Z,99379.55
2019-05-17T14:39:18.133Z,99382.05
2019-05-17T14:41:47.336Z,99388.05
2019-05-17T14:44:16.649Z,99384.06
2019-05-17T14:46:45.918Z,99391.56
2019-05-17T14:49:15.235Z,99386.61
2019-05-17T14:51:44.444Z,99394.70
2019-05-17T14:54:13.683Z,99389.56
2019-05-17T14:56:43.124Z,99391.55
2019-05-17T14:59:12.373Z,99388.56
2019-05-17T15:01:42.187Z,99390.34
2019-05-17T15:04:11.351Z,99381.53
2019-05-17T15:06:40.597Z,99387.39
2019-05-17T15:09:11.682Z,99391.51
2019-05-17T15:11:41.055Z,99387.10
2019-05-17T15:14:10.309Z,99399.32
2019-05-17T15:16:39.508Z,99389.28
2019-05-17T15:19:08.771Z,99390.36
2019-05-17T15:21:38.090Z,99395.17
2019-05-17T15:24:07.278Z,99384.33
2019-05-17T15:26:36.462Z,99383.50
2019-05-17T15:29:05.675Z,99391.16
2019-05-17T15:31:34.974Z,99390.61
2019-05-17T15:34:04.230Z,99392.97
2019-05-17T15:36:33.446Z,99382.66
2019-05-17T15:39:05.834Z,99372.80
2019-05-17T15:41:36.212Z,99390.61
2019-05-17T15:44:05.784Z,99381.65
2019-05-17T15:46:35.017Z,99383.59
2019-05-17T15:49:04.260Z,99386.06
2019-05-17T15:51:33.581Z,99384.09
2019-05-17T15:54:02.811Z,99382.42
2019-05-17T15:56:32.131Z,99381.48
2019-05-17T15:59:01.314Z,99392.17
2019-05-17T16:01:33.947Z,99381.20
2019-05-17T16:04:09.703Z,99377.77
2019-05-17T16:06:55.694Z,99389.77
2019-05-17T16:09:26.478Z,99389.92
2019-05-17T16:11:56.032Z,99387.00
2019-05-17T16:14:25.207Z,99379.03
2019-05-17T16:16:54.409Z,99382.02
2019-05-17T16:19:23.776Z,99378.60
2019-05-17T16:21:53.086Z,99376.16
2019-05-17T16:24:22.267Z,99373.95
2019-05-17T16:26:51.470Z,99375.22
2019-05-17T16:29:20.723Z,99386.05
2019-05-17T16:31:49.986Z,99391.44
2019-05-17T16:34:19.242Z,99390.51
2019-05-17T16:36:48.419Z,99388.69
2019-05-17T16:39:17.658Z,99385.80
2019-05-17T16:41:46.830Z,99390.30
2019-05-17T16:44:16.155Z,99396.52
2019-05-17T16:46:45.446Z,99391.22
2019-05-17T16:49:14.702Z,99388.72
2019-05-17T16:51:43.960Z,99391.27
2019-05-17T16:54:13.196Z,99386.31
2019-05-17T16:56:42.437Z,99385.86
2019-05-17T16:59:11.690Z,99384.30
2019-05-17T17:01:40.914Z,99385.20
2019-05-17T17:04:10.156Z,99382.09
2019-05-17T17:06:39.333Z,99384.58
2019-05-17T17:09:08.633Z,99386.03
2019-05-17T17:11:37.836Z,99386.59
2019-05-17T17:14:07.041Z,99390.41
2019-05-17T17:16:36.399Z,99388.30
2019-05-17T17:19:06.178Z,99388.61
2019-05-17T17:21:35.450Z,99386.07
2019-05-17T17:24:04.702Z,99387.43
2019-05-17T17:26:33.873Z,99378.05
2019-05-17T17:29:03.269Z,99387.25
2019-05-17T17:31:32.439Z,99388.77
2019-05-17T17:34:01.612Z,99387.75
2019-05-17T17:36:30.924Z,99384.15
2019-05-17T17:39:00.177Z,99388.09
2019-05-17T17:41:29.478Z,99389.63
2019-05-17T17:43:59.319Z,99393.06
2019-05-17T17:46:28.886Z,99394.09
2019-05-17T17:48:58.125Z,99392.86
2019-05-17T17:51:27.402Z,99392.73
2019-05-17T17:53:56.724Z,99397.43
2019-05-17T17:56:25.897Z,99401.83
2019-05-17T17:58:55.073Z,99413.73
2019-05-17T18:01:24.322Z,99407.95
2019-05-17T18:03:53.575Z,99417.21
2019-05-17T18:06:22.798Z,99420.07
2019-05-17T18:08:52.068Z,99420.29
2019-05-17T18:11:21.510Z,99416.84
2019-05-17T18:13:50.706Z,99415.27
2019-05-17T18:16:19.963Z,99413.78
2019-05-17T18:18:49.209Z,99419.64
2019-05-17T18:21:18.393Z,99417.64
2019-05-17T18:23:47.752Z,99427.36
2019-05-17T18:26:17.154Z,99424.14
2019-05-17T18:28:46.479Z,99431.48
2019-05-17T18:31:15.734Z,99434.48
2019-05-17T18:33:45.092Z,99433.73
2019-05-17T18:36:14.349Z,99438.95
2019-05-17T18:39:06.388Z,99448.54
2019-05-17T18:41:54.986Z,99449.83
2019-05-17T18:44:27.925Z,99457.64
2019-05-17T18:47:01.236Z,99458.30
2019-05-17T18:49:46.683Z,99464.80
2019-05-17T18:52:24.108Z,99465.65
2019-05-17T18:55:07.077Z,99466.90
2019-05-17T18:57:37.556Z,99467.24
2019-05-17T19:00:06.907Z,99477.84
2019-05-17T19:02:36.956Z,99463.35
2019-05-17T19:05:08.957Z,99466.64
2019-05-17T19:07:38.336Z,99468.53
2019-05-17T19:10:08.560Z,99465.90
2019-05-17T19:12:37.741Z,99462.98
2019-05-17T19:15:10.127Z,99468.93
2019-05-17T19:17:39.451Z,99460.97
2019-05-17T19:20:08.957Z,99467.02
2019-05-17T19:22:38.236Z,99468.05
2019-05-17T19:25:08.757Z,99465.70
2019-05-17T19:27:38.407Z,99464.16
2019-05-17T19:30:10.710Z,99461.25
2019-05-17T19:32:40.435Z,99469.85
2019-05-17T19:35:09.965Z,99467.77
2019-05-17T19:37:39.192Z,99471.28
2019-05-17T19:40:08.578Z,99468.68
2019-05-17T19:42:40.060Z,99465.55
2019-05-17T19:45:09.303Z,99459.01
2019-05-17T19:47:38.762Z,99458.14
2019-05-17T19:50:08.081Z,99454.38
2019-05-17T19:52:37.394Z,99457.41
2019-05-17T19:55:06.726Z,99463.41
2019-05-17T19:57:36.265Z,99459.41
2019-05-17T20:00:06.823Z,99459.47
2019-05-17T20:02:36.072Z,99458.12
2019-05-17T20:05:06.624Z,99448.98
2019-05-17T20:07:38.588Z,99462.64
2019-05-17T20:10:09.922Z,99462.93
2019-05-17T20:12:40.851Z,99467.64
2019-05-17T20:15:17.231Z,99464.77
2019-05-17T20:17:41.739Z,99458.27
2019-05-17T20:20:11.040Z,99464.27
2019-05-17T20:22:40.340Z,99452.70
2019-05-17T20:25:09.510Z,99459.58
2019-05-17T20:27:38.874Z,99464.00
2019-05-17T20:30:11.132Z,99457.56
2019-05-17T20:32:39.745Z,99460.53
2019-05-17T20:35:08.960Z,99461.73
2019-05-17T20:37:38.221Z,99466.13
2019-05-17T20:40:09.098Z,99464.16
2019-05-17T20:42:38.340Z,99470.22
2019-05-17T20:45:08.288Z,99468.54
2019-05-17T20:47:37.499Z,99474.92
2019-05-17T20:50:07.599Z,99477.12
2019-05-17T20:52:36.782Z,99477.59
2019-05-17T20:55:06.308Z,99475.69
2019-05-17T20:57:35.496Z,99479.80
2019-05-17T21:00:07.449Z,99473.83
2019-05-17T21:02:36.678Z,99475.44
2019-05-17T21:05:06.790Z,99475.39
2019-05-17T21:07:35.974Z,99470.17
2019-05-17T21:10:08.016Z,99466.85
2019-05-17T21:12:37.272Z,99474.16
2019-05-17T21:15:10.481Z,99468.54
2019-05-17T21:17:39.778Z,99469.92
2019-05-17T21:20:09.200Z,99464.67
2019-05-17T21:22:38.387Z,99472.15
2019-05-17T21:25:08.890Z,99472.88
2019-05-17T21:27:38.085Z,99463.42
2019-05-17T21:30:35.298Z,99464.52
2019-05-17T21:32:55.902Z,99459.27
2019-05-17T21:35:25.869Z,99452.14
2019-05-17T21:37:55.289Z,99450.86
2019-05-17T21:40:24.613Z,99450.42
2019-05-17T21:42:53.942Z,99458.95
2019-05-17T21:45:23.171Z,99460.34
2019-05-17T21:47:52.424Z,99459.98
2019-05-17T21:50:21.646Z,99464.50
2019-05-17T21:52:50.835Z,99471.37
2019-05-17T21:55:20.646Z,99458.63
2019-05-17T21:57:49.934Z,99457.84
2019-05-17T22:00:51.407Z,99462.20
2019-05-17T22:03:20.634Z,99461.41
2019-05-17T22:05:51.025Z,99461.16
2019-05-17T22:08:20.321Z,99462.80
2019-05-17T22:10:50.194Z,99454.18
2019-05-17T22:13:19.464Z,99450.79
2019-05-17T22:15:48.733Z,99444.83
2019-05-17T22:18:18.769Z,99437.45
2019-05-17T22:20:48.148Z,99438.60
2019-05-17T22:23:18.016Z,99435.64
2019-05-17T22:25:47.293Z,99430.05
2019-05-17T22:28:16.470Z,99433.47
2019-05-17T22:30:45.710Z,99433.86
2019-05-17T22:33:15.022Z,99431.04
2019-05-17T22:35:44.302Z,99434.75
2019-05-17T22:38:13.562Z,99432.39
2019-05-17T22:40:42.778Z,99429.50
2019-05-17T22:43:12.141Z,99434.32
2019-05-17T22:45:41.493Z,99435.03
2019-05-17T22:48:10.771Z,99437.42
2019-05-17T22:50:39.998Z,99440.20
2019-05-17T22:53:09.315Z,99443.76
2019-05-17T22:55:38.692Z,99449.30
2019-05-17T22:58:07.942Z,99446.40
2019-05-17T23:00:37.182Z,99450.34
2019-05-17T23:03:06.427Z,99448.95
2019-05-17T23:05:35.648Z,99450.74
2019-05-17T23:08:04.880Z,99454.55
2019-05-17T23:10:35.202Z,99451.50
2019-05-17T23:13:04.598Z,99447.56
2019-05-17T23:15:35.672Z,99451.55
2019-05-17T23:18:04.936Z,99450.16
2019-05-17T23:20:34.117Z,99444.03
2019-05-17T23:23:03.443Z,99449.12
2019-05-17T23:25:32.719Z,99452.59
2019-05-17T23:28:01.924Z,99461.00
2019-05-17T23:30:31.255Z,99464.52
2019-05-17T23:33:00.527Z,99470.21
2019-05-17T23:35:29.830Z,99480.14
2019-05-17T23:37:59.071Z,99476.44
2019-05-17T23:40:28.250Z,99474.70
2019-05-17T23:42:57.495Z,99479.35
2019-05-17T23:45:26.768Z,99476.73
2019-05-17T23:47:56.019Z,99474.99
2019-05-17T23:50:25.373Z,99477.06
2019-05-17T23:52:54.625Z,99469.61
2019-05-17T23:55:23.812Z,99473.08
2019-05-17T23:57:53.140Z,99467.48
